Other Surface Observations
Issued by NWS Great Falls, MT

Home | Current Version | Previous Version | Text Only | Print | Product List | Glossary On
Versions: 1 2 3 4 5 6 7 8 9 10 11 12 13 14 15 16 17 18 19 20 21 22 23 24 25 26 27 28 29 30 31 32 33 34 35 36 37 38 39 40 41 42 43 44 45 46 47 48 49 50
000
SXUS55 KTFX 252035
OSOTFX
AREA AWOS OBSERVATIONS
NATIONAL WEATHER SERVICE GREAT FALLS MT
0135 PM MST SUN JAN 25 2015

METAR KPWD 252030Z AUTO 18009KT 10SM 04/M01 A2983 RMK PLENTYWOOD
METAR KPO1 252030Z AUTO 10SM 07/01 A2982 RMK POPLAR
METAR K1S3 252030Z AUTO 24007KT 10SM 13/03 A2991 RMK FORSYTH
METAR KS71 252030Z AUTO 26015G21KT 10SM 14/03 A2985 RMK CHINOOK
METAR K6S0 252030Z AUTO 25030G42KT 10SM 13/M02 A3002 RMK BIG TIMBER
METAR K38S 252030Z AUTO 31004KT 10SM 11/02 A3023 RMK DEER LODGE
METAR K3U3 252030Z AUTO 19015G21KT 10SM 13/M01 A3021 RMK ANACONDA
METAR K6S5 252030Z AUTO 22004KT 10SM 17/M04 A3021 RMK HAMILTON
METAR KS59 252030Z AUTO 00000KT 10SM 06/06 A3015 RMK LIBBY
METAR K88M 252030Z AUTO 00000KT 10SM 07/03 A3011 RMK EUREKA



USA.gov is the U.S. government's official web portal to all federal, state and local government web resources and services.